Aérodrome :
LOGIN :

S'inscrire | Disclaimer

   EN    FR    IT 

 










Légende :    VFR   VFR Marginal   IFR   IFR Intensif   IFR Très Intensif
Visi : 
Plafond : 
>= 8 km
>= 3000ft
5 à 8 km
1000 à 3000 ft
1500m à 5 km
500 à 1000 ft
800 à 1500m
200 à 500 ft
< 800m
< 200 ft
Symboles :   Orages  Brouillard  Fortes neiges  Fortes précipitations  Vent > 20 kt
SIGMETs :   Divers  Orages  Givrage  Turbulence  Onde Orograph.  Cendres Volcan.






- Altitude de l'aérodrome : 776 ft
- Code IATA : RMS


ETAR - Ramstein Air Base

DERNIER METAR :
  • 160656Z 04004KT 9999 FEW024 BKN037 OVC055 03/00 A3027 RMK AO2A SLP263 T00300001 FZRANO $

METARs EXPIRÉS :
  • 160603Z 00000KT 9999 FEW026 OVC034 01/M00 A3027 RMK AO2A SLP263 FZRANO $
  • 160556Z 00000KT 9999 -SG FEW027 BKN034 BKN041 01/M00 A3027 RMK AO2A SLP263 T00061004 10006 21033 53000 FZRANO $
  • 160541Z 00000KT 9999 FEW027 FEW034 SCT060 00/M01 A3027 RMK AO2A SLP263 55000 FZRANO $
  • 160533Z 00000KT 9999 -SG FEW034 SCT060 M00/M01 A3027 RMK SLP263 55001 FZRANO $
  • 160516Z AUTO 00000KT 9999 FEW018 SCT026 BKN035 OVC060 M01/M01 A3027 RMK AO2 SLP264 FZRANO $
  • 160456Z AUTO 00000KT 9999 SCT019 BKN027 OVC035 M01/M01 A3027 RMK AO2 SLP263 T10081011 FZRANO $

TAF AMD TAF ETAR
Valide du 16 à 07h jusqu'au 17 à 08h UTC


160707Z 1607/1708 03010KT 9999 BKN030 620303 QNH3027INS
TEMPO 1610/1616 04010G20KT 510004
BECMG 1615/1616 05009KT 9999 BKN040 QNH3023INS TX08/1615Z TNM02/1704Z



MET'MAP, la Météo Aéronautique d'un coup d'oeil ! - Copyright ORBIFLY Décembre 2007 - Disclaimer

ORBIFLY MET'MAP TEAM :

Programmation & Développement : Alexandra Zaïnal
Sur une idée originale de : Baudouin d'Aumeries
Assistance à la programmation : Marc-Olivier Méhu
Soutien technique & logistique : Manuel Goepfert

Contact : metmap@orbifly.com




SOURCES & CREDITS :

   NOAA